sensor_id;sensor_type;location;lat;lon;timestamp;temperature;humidity
42365;DHT22;28498;54.400;18.566;2024-02-23T00:02:09;7.10;99.90
42365;DHT22;28498;54.400;18.566;2024-02-23T00:04:37;7.10;99.90
42365;DHT22;28498;54.400;18.566;2024-02-23T00:07:04;7.10;99.90
42365;DHT22;28498;54.400;18.566;2024-02-23T00:09:31;7.10;99.90
42365;DHT22;28498;54.400;18.566;2024-02-23T00:11:58;7.10;99.90
42365;DHT22;28498;54.400;18.566;2024-02-23T00:14:25;7.10;99.90
42365;DHT22;28498;54.400;18.566;2024-02-23T00:16:52;7.20;99.90
42365;DHT22;28498;54.400;18.566;2024-02-23T00:19:20;7.20;99.90
42365;DHT22;28498;54.400;18.566;2024-02-23T00:21:48;7.20;99.90
42365;DHT22;28498;54.400;18.566;2024-02-23T00:24:18;7.10;99.90
42365;DHT22;28498;54.400;18.566;2024-02-23T00:26:48;7.20;99.90
42365;DHT22;28498;54.400;18.566;2024-02-23T00:29:16;7.20;99.90
42365;DHT22;28498;54.400;18.566;2024-02-23T00:31:43;7.20;99.90
42365;DHT22;28498;54.400;18.566;2024-02-23T00:34:14;7.20;99.90
42365;DHT22;28498;54.400;18.566;2024-02-23T00:36:42;7.20;99.90
42365;DHT22;28498;54.400;18.566;2024-02-23T00:39:11;7.20;99.90
42365;DHT22;28498;54.400;18.566;2024-02-23T00:41:38;7.20;99.90
42365;DHT22;28498;54.400;18.566;2024-02-23T00:44:06;7.20;99.90
42365;DHT22;28498;54.400;18.566;2024-02-23T00:46:33;7.20;99.90
42365;DHT22;28498;54.400;18.566;2024-02-23T00:49:01;7.30;99.90
42365;DHT22;28498;54.400;18.566;2024-02-23T00:51:29;7.30;99.90
42365;DHT22;28498;54.400;18.566;2024-02-23T00:53:56;7.30;99.90
42365;DHT22;28498;54.400;18.566;2024-02-23T00:56:23;7.30;99.90
42365;DHT22;28498;54.400;18.566;2024-02-23T00:59:01;7.30;99.90
42365;DHT22;28498;54.400;18.566;2024-02-23T01:01:29;7.30;99.90
42365;DHT22;28498;54.400;18.566;2024-02-23T01:03:56;7.30;99.90
42365;DHT22;28498;54.400;18.566;2024-02-23T01:06:23;7.30;99.90
42365;DHT22;28498;54.400;18.566;2024-02-23T01:08:51;7.30;99.90
42365;DHT22;28498;54.400;18.566;2024-02-23T01:11:18;7.40;99.90
42365;DHT22;28498;54.400;18.566;2024-02-23T01:13:46;7.40;99.90
42365;DHT22;28498;54.400;18.566;2024-02-23T01:16:13;7.40;99.90
42365;DHT22;28498;54.400;18.566;2024-02-23T01:18:40;7.50;99.90
42365;DHT22;28498;54.400;18.566;2024-02-23T01:21:08;7.50;99.90
42365;DHT22;28498;54.400;18.566;2024-02-23T01:23:35;7.50;99.90
42365;DHT22;28498;54.400;18.566;2024-02-23T01:26:02;7.60;99.90
42365;DHT22;28498;54.400;18.566;2024-02-23T01:28:29;7.60;99.90
42365;DHT22;28498;54.400;18.566;2024-02-23T01:30:56;7.60;99.90
42365;DHT22;28498;54.400;18.566;2024-02-23T01:33:23;7.60;99.90
42365;DHT22;28498;54.400;18.566;2024-02-23T01:35:53;7.60;99.90
42365;DHT22;28498;54.400;18.566;2024-02-23T01:38:21;7.60;99.90
42365;DHT22;28498;54.400;18.566;2024-02-23T01:40:49;7.60;99.90
42365;DHT22;28498;54.400;18.566;2024-02-23T01:43:16;7.60;99.90
42365;DHT22;28498;54.400;18.566;2024-02-23T01:45:43;7.50;99.90
42365;DHT22;28498;54.400;18.566;2024-02-23T01:48:10;7.50;99.90
42365;DHT22;28498;54.400;18.566;2024-02-23T01:50:37;7.40;99.90
42365;DHT22;28498;54.400;18.566;2024-02-23T01:53:05;7.40;99.90
42365;DHT22;28498;54.400;18.566;2024-02-23T01:55:32;7.40;99.90
42365;DHT22;28498;54.400;18.566;2024-02-23T01:58:04;7.30;99.90
42365;DHT22;28498;54.400;18.566;2024-02-23T02:00:35;7.30;99.90
42365;DHT22;28498;54.400;18.566;2024-02-23T02:03:04;7.30;99.90
42365;DHT22;28498;54.400;18.566;2024-02-23T02:05:37;7.30;99.90
42365;DHT22;28498;54.400;18.566;2024-02-23T02:08:05;7.30;99.90
42365;DHT22;28498;54.400;18.566;2024-02-23T02:10:32;7.20;99.90
42365;DHT22;28498;54.400;18.566;2024-02-23T02:13:03;7.30;99.90
42365;DHT22;28498;54.400;18.566;2024-02-23T02:15:31;7.30;99.90
42365;DHT22;28498;54.400;18.566;2024-02-23T02:17:58;7.30;99.90
42365;DHT22;28498;54.400;18.566;2024-02-23T02:20:25;7.30;99.90
42365;DHT22;28498;54.400;18.566;2024-02-23T02:22:54;7.40;99.90
42365;DHT22;28498;54.400;18.566;2024-02-23T02:25:21;7.40;99.90
42365;DHT22;28498;54.400;18.566;2024-02-23T02:27:48;7.40;99.90
42365;DHT22;28498;54.400;18.566;2024-02-23T02:30:15;7.40;99.90
42365;DHT22;28498;54.400;18.566;2024-02-23T02:32:43;7.40;99.90
42365;DHT22;28498;54.400;18.566;2024-02-23T02:35:11;7.40;99.90
42365;DHT22;28498;54.400;18.566;2024-02-23T02:37:39;7.40;99.90
42365;DHT22;28498;54.400;18.566;2024-02-23T02:40:06;7.40;99.90
42365;DHT22;28498;54.400;18.566;2024-02-23T02:42:34;7.40;99.90
42365;DHT22;28498;54.400;18.566;2024-02-23T02:45:01;7.40;99.90
42365;DHT22;28498;54.400;18.566;2024-02-23T02:47:30;7.40;99.90
42365;DHT22;28498;54.400;18.566;2024-02-23T02:49:57;7.40;99.90
42365;DHT22;28498;54.400;18.566;2024-02-23T02:52:24;7.40;99.90
42365;DHT22;28498;54.400;18.566;2024-02-23T02:54:51;7.40;99.90
42365;DHT22;28498;54.400;18.566;2024-02-23T02:57:18;7.40;99.90
42365;DHT22;28498;54.400;18.566;2024-02-23T02:59:46;7.40;99.90
42365;DHT22;28498;54.400;18.566;2024-02-23T03:02:13;7.30;99.90
42365;DHT22;28498;54.400;18.566;2024-02-23T03:04:49;7.30;99.90
42365;DHT22;28498;54.400;18.566;2024-02-23T03:07:17;7.30;99.90
42365;DHT22;28498;54.400;18.566;2024-02-23T03:09:44;7.30;99.90
42365;DHT22;28498;54.400;18.566;2024-02-23T03:12:11;7.30;99.90
42365;DHT22;28498;54.400;18.566;2024-02-23T03:14:39;7.30;99.90
42365;DHT22;28498;54.400;18.566;2024-02-23T03:17:08;7.30;99.90
42365;DHT22;28498;54.400;18.566;2024-02-23T03:19:38;7.30;99.90
42365;DHT22;28498;54.400;18.566;2024-02-23T03:22:05;7.30;99.90
42365;DHT22;28498;54.400;18.566;2024-02-23T03:24:32;7.30;99.90
42365;DHT22;28498;54.400;18.566;2024-02-23T03:26:59;7.30;99.90
42365;DHT22;28498;54.400;18.566;2024-02-23T03:29:27;7.30;99.90
42365;DHT22;28498;54.400;18.566;2024-02-23T03:31:56;7.30;99.90
42365;DHT22;28498;54.400;18.566;2024-02-23T03:34:24;7.30;99.90
42365;DHT22;28498;54.400;18.566;2024-02-23T03:36:52;7.30;99.90
42365;DHT22;28498;54.400;18.566;2024-02-23T03:39:19;7.30;99.90
42365;DHT22;28498;54.400;18.566;2024-02-23T03:41:46;7.30;99.90
42365;DHT22;28498;54.400;18.566;2024-02-23T03:44:13;7.30;99.90
42365;DHT22;28498;54.400;18.566;2024-02-23T03:46:40;7.40;99.90
42365;DHT22;28498;54.400;18.566;2024-02-23T03:49:08;7.40;99.90
42365;DHT22;28498;54.400;18.566;2024-02-23T03:51:35;7.40;99.90
42365;DHT22;28498;54.400;18.566;2024-02-23T03:54:06;7.40;99.90
42365;DHT22;28498;54.400;18.566;2024-02-23T03:56:40;7.40;99.90
42365;DHT22;28498;54.400;18.566;2024-02-23T03:59:10;7.30;99.90
42365;DHT22;28498;54.400;18.566;2024-02-23T04:01:38;7.40;99.90
42365;DHT22;28498;54.400;18.566;2024-02-23T04:04:06;7.40;99.90
42365;DHT22;28498;54.400;18.566;2024-02-23T04:06:34;7.40;99.90
42365;DHT22;28498;54.400;18.566;2024-02-23T04:09:02;7.40;99.90
42365;DHT22;28498;54.400;18.566;2024-02-23T04:11:32;7.40;99.90
42365;DHT22;28498;54.400;18.566;2024-02-23T04:14:00;7.40;99.90
42365;DHT22;28498;54.400;18.566;2024-02-23T04:16:28;7.40;99.90
42365;DHT22;28498;54.400;18.566;2024-02-23T04:18:55;7.40;99.90
42365;DHT22;28498;54.400;18.566;2024-02-23T04:21:24;7.40;99.90
42365;DHT22;28498;54.400;18.566;2024-02-23T04:23:51;7.40;99.90
42365;DHT22;28498;54.400;18.566;2024-02-23T04:26:18;7.40;99.90
42365;DHT22;28498;54.400;18.566;2024-02-23T04:28:45;7.50;99.90
42365;DHT22;28498;54.400;18.566;2024-02-23T04:31:12;7.40;99.90
42365;DHT22;28498;54.400;18.566;2024-02-23T04:33:39;7.50;99.90
42365;DHT22;28498;54.400;18.566;2024-02-23T04:36:07;7.50;99.90
42365;DHT22;28498;54.400;18.566;2024-02-23T04:38:34;7.50;99.90
42365;DHT22;28498;54.400;18.566;2024-02-23T04:41:04;7.50;99.90
42365;DHT22;28498;54.400;18.566;2024-02-23T04:43:32;7.50;99.90
42365;DHT22;28498;54.400;18.566;2024-02-23T04:45:59;7.50;99.90
42365;DHT22;28498;54.400;18.566;2024-02-23T04:48:26;7.50;99.90
42365;DHT22;28498;54.400;18.566;2024-02-23T04:50:54;7.50;99.90
42365;DHT22;28498;54.400;18.566;2024-02-23T04:53:21;7.60;99.90
42365;DHT22;28498;54.400;18.566;2024-02-23T04:55:48;7.60;99.90
42365;DHT22;28498;54.400;18.566;2024-02-23T04:58:15;7.60;99.90
42365;DHT22;28498;54.400;18.566;2024-02-23T05:00:42;7.60;99.90
42365;DHT22;28498;54.400;18.566;2024-02-23T05:03:09;7.60;99.90
42365;DHT22;28498;54.400;18.566;2024-02-23T05:05:38;7.70;99.90
42365;DHT22;28498;54.400;18.566;2024-02-23T05:08:06;7.60;99.90
42365;DHT22;28498;54.400;18.566;2024-02-23T05:10:34;7.70;99.90
42365;DHT22;28498;54.400;18.566;2024-02-23T05:13:01;7.70;99.90
42365;DHT22;28498;54.400;18.566;2024-02-23T05:15:28;7.70;99.90
42365;DHT22;28498;54.400;18.566;2024-02-23T05:17:55;7.70;99.90
42365;DHT22;28498;54.400;18.566;2024-02-23T05:20:22;7.70;99.90
42365;DHT22;28498;54.400;18.566;2024-02-23T05:22:49;7.70;99.90
42365;DHT22;28498;54.400;18.566;2024-02-23T05:25:16;7.80;99.90
42365;DHT22;28498;54.400;18.566;2024-02-23T05:27:43;7.80;99.90
42365;DHT22;28498;54.400;18.566;2024-02-23T05:30:11;7.80;99.90
42365;DHT22;28498;54.400;18.566;2024-02-23T05:32:38;7.90;99.90
42365;DHT22;28498;54.400;18.566;2024-02-23T05:35:06;7.90;99.90
42365;DHT22;28498;54.400;18.566;2024-02-23T05:37:33;7.90;99.90
42365;DHT22;28498;54.400;18.566;2024-02-23T05:40:00;7.90;99.90
42365;DHT22;28498;54.400;18.566;2024-02-23T05:42:30;7.90;99.90
42365;DHT22;28498;54.400;18.566;2024-02-23T05:45:00;7.90;99.90
42365;DHT22;28498;54.400;18.566;2024-02-23T05:47:27;7.90;99.90
42365;DHT22;28498;54.400;18.566;2024-02-23T05:49:54;7.90;99.90
42365;DHT22;28498;54.400;18.566;2024-02-23T05:52:21;7.90;99.90
42365;DHT22;28498;54.400;18.566;2024-02-23T05:54:48;7.90;99.90
42365;DHT22;28498;54.400;18.566;2024-02-23T05:57:18;7.90;99.90
42365;DHT22;28498;54.400;18.566;2024-02-23T05:59:45;7.90;99.90
42365;DHT22;28498;54.400;18.566;2024-02-23T06:02:13;7.90;99.90
42365;DHT22;28498;54.400;18.566;2024-02-23T06:04:40;7.90;99.90
42365;DHT22;28498;54.400;18.566;2024-02-23T06:07:07;7.90;99.90
42365;DHT22;28498;54.400;18.566;2024-02-23T06:09:35;7.80;99.90
42365;DHT22;28498;54.400;18.566;2024-02-23T06:12:02;7.80;99.90
42365;DHT22;28498;54.400;18.566;2024-02-23T06:14:30;7.80;99.90
42365;DHT22;28498;54.400;18.566;2024-02-23T06:16:57;7.70;99.90
42365;DHT22;28498;54.400;18.566;2024-02-23T06:19:24;7.70;99.90
42365;DHT22;28498;54.400;18.566;2024-02-23T06:21:51;7.70;99.90
42365;DHT22;28498;54.400;18.566;2024-02-23T06:24:18;7.70;99.90
42365;DHT22;28498;54.400;18.566;2024-02-23T06:26:46;7.70;99.90
42365;DHT22;28498;54.400;18.566;2024-02-23T06:29:15;7.90;99.90
42365;DHT22;28498;54.400;18.566;2024-02-23T06:31:42;8.00;99.90
42365;DHT22;28498;54.400;18.566;2024-02-23T06:34:15;8.00;99.90
42365;DHT22;28498;54.400;18.566;2024-02-23T06:36:43;8.00;99.90
42365;DHT22;28498;54.400;18.566;2024-02-23T06:39:10;7.90;99.90
42365;DHT22;28498;54.400;18.566;2024-02-23T06:41:38;8.00;99.90
42365;DHT22;28498;54.400;18.566;2024-02-23T06:44:05;8.10;99.90
42365;DHT22;28498;54.400;18.566;2024-02-23T06:46:33;8.10;99.90
42365;DHT22;28498;54.400;18.566;2024-02-23T06:49:02;8.10;99.90
42365;DHT22;28498;54.400;18.566;2024-02-23T06:51:30;8.10;99.90
42365;DHT22;28498;54.400;18.566;2024-02-23T06:53:57;8.20;99.90
42365;DHT22;28498;54.400;18.566;2024-02-23T06:56:24;8.30;99.90
42365;DHT22;28498;54.400;18.566;2024-02-23T06:58:52;8.40;99.90
42365;DHT22;28498;54.400;18.566;2024-02-23T07:01:20;8.40;99.90
42365;DHT22;28498;54.400;18.566;2024-02-23T07:03:47;8.40;99.90
42365;DHT22;28498;54.400;18.566;2024-02-23T07:06:17;8.50;99.90
42365;DHT22;28498;54.400;18.566;2024-02-23T07:08:45;8.60;99.90
42365;DHT22;28498;54.400;18.566;2024-02-23T07:11:12;8.70;99.90
42365;DHT22;28498;54.400;18.566;2024-02-23T07:13:43;8.80;99.90
42365;DHT22;28498;54.400;18.566;2024-02-23T07:16:11;8.80;99.90
42365;DHT22;28498;54.400;18.566;2024-02-23T07:22:25;9.20;99.90
42365;DHT22;28498;54.400;18.566;2024-02-23T07:24:52;9.30;99.90
42365;DHT22;28498;54.400;18.566;2024-02-23T07:27:19;9.30;99.90
42365;DHT22;28498;54.400;18.566;2024-02-23T07:29:46;9.30;99.90
42365;DHT22;28498;54.400;18.566;2024-02-23T07:32:13;9.40;99.90
42365;DHT22;28498;54.400;18.566;2024-02-23T07:34:41;9.40;99.90
42365;DHT22;28498;54.400;18.566;2024-02-23T07:37:08;9.50;99.90
42365;DHT22;28498;54.400;18.566;2024-02-23T07:39:36;9.60;99.90
42365;DHT22;28498;54.400;18.566;2024-02-23T07:42:06;9.60;99.90
42365;DHT22;28498;54.400;18.566;2024-02-23T07:44:35;9.70;99.90
42365;DHT22;28498;54.400;18.566;2024-02-23T07:47:02;9.80;99.90
42365;DHT22;28498;54.400;18.566;2024-02-23T07:49:29;9.80;99.90
42365;DHT22;28498;54.400;18.566;2024-02-23T07:51:57;10.00;99.90
42365;DHT22;28498;54.400;18.566;2024-02-23T07:54:24;10.10;99.90
42365;DHT22;28498;54.400;18.566;2024-02-23T08:00:39;10.10;99.90
42365;DHT22;28498;54.400;18.566;2024-02-23T08:03:06;10.10;99.90
42365;DHT22;28498;54.400;18.566;2024-02-23T08:05:34;10.20;99.90
42365;DHT22;28498;54.400;18.566;2024-02-23T08:08:02;10.20;99.90
42365;DHT22;28498;54.400;18.566;2024-02-23T08:10:29;10.20;99.90
42365;DHT22;28498;54.400;18.566;2024-02-23T08:12:59;10.30;99.90
42365;DHT22;28498;54.400;18.566;2024-02-23T08:15:26;10.20;99.90
42365;DHT22;28498;54.400;18.566;2024-02-23T08:17:53;10.20;99.90
42365;DHT22;28498;54.400;18.566;2024-02-23T08:20:20;10.30;99.90
42365;DHT22;28498;54.400;18.566;2024-02-23T08:22:48;10.30;99.90
42365;DHT22;28498;54.400;18.566;2024-02-23T08:25:15;10.30;99.90
42365;DHT22;28498;54.400;18.566;2024-02-23T08:27:43;10.20;99.90
42365;DHT22;28498;54.400;18.566;2024-02-23T08:30:10;10.30;99.90
42365;DHT22;28498;54.400;18.566;2024-02-23T08:32:40;10.20;99.90
42365;DHT22;28498;54.400;18.566;2024-02-23T08:35:08;10.30;99.90
42365;DHT22;28498;54.400;18.566;2024-02-23T08:37:37;10.40;99.90
42365;DHT22;28498;54.400;18.566;2024-02-23T08:40:06;10.40;99.90
42365;DHT22;28498;54.400;18.566;2024-02-23T08:42:34;10.40;99.90
42365;DHT22;28498;54.400;18.566;2024-02-23T08:45:01;10.50;99.90
42365;DHT22;28498;54.400;18.566;2024-02-23T08:47:28;10.50;99.90
42365;DHT22;28498;54.400;18.566;2024-02-23T08:49:59;10.40;99.90
42365;DHT22;28498;54.400;18.566;2024-02-23T08:52:27;10.50;99.90
42365;DHT22;28498;54.400;18.566;2024-02-23T08:54:54;10.40;99.90
42365;DHT22;28498;54.400;18.566;2024-02-23T08:57:21;10.50;99.90
42365;DHT22;28498;54.400;18.566;2024-02-23T08:59:49;10.40;99.90
42365;DHT22;28498;54.400;18.566;2024-02-23T09:02:17;10.50;99.90
42365;DHT22;28498;54.400;18.566;2024-02-23T09:04:44;10.50;99.90
42365;DHT22;28498;54.400;18.566;2024-02-23T09:07:12;10.50;99.90
42365;DHT22;28498;54.400;18.566;2024-02-23T09:09:43;10.50;99.90
42365;DHT22;28498;54.400;18.566;2024-02-23T09:12:10;10.60;99.90
42365;DHT22;28498;54.400;18.566;2024-02-23T09:14:38;10.60;99.90
42365;DHT22;28498;54.400;18.566;2024-02-23T09:17:05;10.40;99.90
42365;DHT22;28498;54.400;18.566;2024-02-23T09:19:35;10.30;99.90
42365;DHT22;28498;54.400;18.566;2024-02-23T09:22:03;10.30;99.90
42365;DHT22;28498;54.400;18.566;2024-02-23T09:24:30;10.40;99.90
42365;DHT22;28498;54.400;18.566;2024-02-23T09:26:57;10.40;99.90
42365;DHT22;28498;54.400;18.566;2024-02-23T09:29:25;10.40;99.90
42365;DHT22;28498;54.400;18.566;2024-02-23T09:31:52;10.40;99.90
42365;DHT22;28498;54.400;18.566;2024-02-23T09:34:19;10.60;99.90
42365;DHT22;28498;54.400;18.566;2024-02-23T09:36:47;10.60;99.90
42365;DHT22;28498;54.400;18.566;2024-02-23T09:39:15;10.70;99.90
42365;DHT22;28498;54.400;18.566;2024-02-23T09:41:42;10.70;99.90
42365;DHT22;28498;54.400;18.566;2024-02-23T09:44:11;10.60;99.90
42365;DHT22;28498;54.400;18.566;2024-02-23T09:46:40;10.70;99.90
42365;DHT22;28498;54.400;18.566;2024-02-23T09:49:12;10.90;99.90
42365;DHT22;28498;54.400;18.566;2024-02-23T09:51:40;10.90;99.90
42365;DHT22;28498;54.400;18.566;2024-02-23T09:54:08;10.90;99.90
42365;DHT22;28498;54.400;18.566;2024-02-23T09:56:35;10.80;99.90
42365;DHT22;28498;54.400;18.566;2024-02-23T09:59:04;10.80;99.90
42365;DHT22;28498;54.400;18.566;2024-02-23T10:01:32;10.80;99.90
42365;DHT22;28498;54.400;18.566;2024-02-23T10:04:01;10.80;99.90
42365;DHT22;28498;54.400;18.566;2024-02-23T10:06:32;10.70;99.90
42365;DHT22;28498;54.400;18.566;2024-02-23T10:08:59;10.80;99.90
42365;DHT22;28498;54.400;18.566;2024-02-23T10:11:26;10.80;99.90
42365;DHT22;28498;54.400;18.566;2024-02-23T10:13:54;10.60;99.90
42365;DHT22;28498;54.400;18.566;2024-02-23T10:16:22;10.60;99.90
42365;DHT22;28498;54.400;18.566;2024-02-23T10:18:49;10.60;99.90
42365;DHT22;28498;54.400;18.566;2024-02-23T10:21:17;10.60;99.90
42365;DHT22;28498;54.400;18.566;2024-02-23T10:23:45;10.50;99.90
42365;DHT22;28498;54.400;18.566;2024-02-23T10:26:13;10.50;99.90
42365;DHT22;28498;54.400;18.566;2024-02-23T10:28:41;10.60;99.90
42365;DHT22;28498;54.400;18.566;2024-02-23T10:31:08;10.60;99.90
42365;DHT22;28498;54.400;18.566;2024-02-23T10:33:40;10.70;99.90
42365;DHT22;28498;54.400;18.566;2024-02-23T10:36:07;10.80;99.90
42365;DHT22;28498;54.400;18.566;2024-02-23T10:38:38;10.80;99.90
42365;DHT22;28498;54.400;18.566;2024-02-23T10:41:10;10.80;99.90
42365;DHT22;28498;54.400;18.566;2024-02-23T10:43:47;10.70;99.90
42365;DHT22;28498;54.400;18.566;2024-02-23T10:46:15;10.90;99.90
42365;DHT22;28498;54.400;18.566;2024-02-23T10:48:44;11.00;99.90
42365;DHT22;28498;54.400;18.566;2024-02-23T10:51:15;11.10;99.90
42365;DHT22;28498;54.400;18.566;2024-02-23T10:53:46;11.10;99.90
42365;DHT22;28498;54.400;18.566;2024-02-23T10:56:15;11.10;99.90
42365;DHT22;28498;54.400;18.566;2024-02-23T10:58:42;11.10;99.90
42365;DHT22;28498;54.400;18.566;2024-02-23T11:01:10;11.10;99.90
42365;DHT22;28498;54.400;18.566;2024-02-23T11:03:43;11.20;99.90
42365;DHT22;28498;54.400;18.566;2024-02-23T11:06:13;11.50;99.90
42365;DHT22;28498;54.400;18.566;2024-02-23T11:08:43;11.40;99.90
42365;DHT22;28498;54.400;18.566;2024-02-23T11:11:11;11.20;99.90
42365;DHT22;28498;54.400;18.566;2024-02-23T11:13:39;11.10;99.90
42365;DHT22;28498;54.400;18.566;2024-02-23T11:16:08;11.20;99.90
42365;DHT22;28498;54.400;18.566;2024-02-23T11:18:41;11.10;99.90
42365;DHT22;28498;54.400;18.566;2024-02-23T11:21:09;11.20;99.90
42365;DHT22;28498;54.400;18.566;2024-02-23T11:23:45;11.10;99.90
42365;DHT22;28498;54.400;18.566;2024-02-23T11:26:15;11.20;99.90
42365;DHT22;28498;54.400;18.566;2024-02-23T11:28:49;11.10;99.90
42365;DHT22;28498;54.400;18.566;2024-02-23T11:31:23;11.30;99.90
42365;DHT22;28498;54.400;18.566;2024-02-23T11:33:53;11.40;99.90
42365;DHT22;28498;54.400;18.566;2024-02-23T11:36:30;11.10;99.90
42365;DHT22;28498;54.400;18.566;2024-02-23T11:39:00;10.90;99.90
42365;DHT22;28498;54.400;18.566;2024-02-23T11:41:28;10.80;99.90
42365;DHT22;28498;54.400;18.566;2024-02-23T11:47:44;10.70;99.90
42365;DHT22;28498;54.400;18.566;2024-02-23T11:50:11;10.80;99.90
42365;DHT22;28498;54.400;18.566;2024-02-23T11:52:39;11.00;99.90
42365;DHT22;28498;54.400;18.566;2024-02-23T11:55:06;11.00;99.90
42365;DHT22;28498;54.400;18.566;2024-02-23T11:57:35;11.10;99.90
42365;DHT22;28498;54.400;18.566;2024-02-23T12:00:14;11.20;99.90
42365;DHT22;28498;54.400;18.566;2024-02-23T12:02:43;11.20;99.90
42365;DHT22;28498;54.400;18.566;2024-02-23T12:05:11;11.10;99.90
42365;DHT22;28498;54.400;18.566;2024-02-23T12:07:41;11.30;99.90
42365;DHT22;28498;54.400;18.566;2024-02-23T12:10:13;11.50;99.90
42365;DHT22;28498;54.400;18.566;2024-02-23T12:12:40;11.70;99.90
42365;DHT22;28498;54.400;18.566;2024-02-23T12:15:08;11.90;99.90
42365;DHT22;28498;54.400;18.566;2024-02-23T12:17:46;11.70;99.90
42365;DHT22;28498;54.400;18.566;2024-02-23T12:20:16;12.00;99.90
42365;DHT22;28498;54.400;18.566;2024-02-23T12:22:43;11.60;99.90
42365;DHT22;28498;54.400;18.566;2024-02-23T12:25:12;11.50;99.90
42365;DHT22;28498;54.400;18.566;2024-02-23T12:27:40;11.50;99.90
42365;DHT22;28498;54.400;18.566;2024-02-23T12:30:17;11.20;99.90
42365;DHT22;28498;54.400;18.566;2024-02-23T12:32:45;11.20;99.90
42365;DHT22;28498;54.400;18.566;2024-02-23T12:35:12;11.30;99.90
42365;DHT22;28498;54.400;18.566;2024-02-23T12:37:40;11.30;99.90
42365;DHT22;28498;54.400;18.566;2024-02-23T12:40:11;11.50;99.90
42365;DHT22;28498;54.400;18.566;2024-02-23T12:42:38;11.80;99.90
42365;DHT22;28498;54.400;18.566;2024-02-23T12:45:05;11.60;99.90
42365;DHT22;28498;54.400;18.566;2024-02-23T12:47:33;11.60;99.90
42365;DHT22;28498;54.400;18.566;2024-02-23T12:50:01;11.80;99.90
42365;DHT22;28498;54.400;18.566;2024-02-23T12:52:28;11.70;99.90
42365;DHT22;28498;54.400;18.566;2024-02-23T12:54:55;11.90;99.90
42365;DHT22;28498;54.400;18.566;2024-02-23T12:57:22;11.90;99.90
42365;DHT22;28498;54.400;18.566;2024-02-23T12:59:49;12.00;99.90
42365;DHT22;28498;54.400;18.566;2024-02-23T13:02:16;12.00;99.90
42365;DHT22;28498;54.400;18.566;2024-02-23T13:04:44;12.00;99.90
42365;DHT22;28498;54.400;18.566;2024-02-23T13:07:16;12.20;99.90
42365;DHT22;28498;54.400;18.566;2024-02-23T13:09:44;12.20;99.90
42365;DHT22;28498;54.400;18.566;2024-02-23T13:12:11;12.10;99.90
42365;DHT22;28498;54.400;18.566;2024-02-23T13:14:39;12.20;99.90
42365;DHT22;28498;54.400;18.566;2024-02-23T13:17:06;12.30;99.90
42365;DHT22;28498;54.400;18.566;2024-02-23T13:19:33;12.20;99.90
42365;DHT22;28498;54.400;18.566;2024-02-23T13:22:00;11.90;99.90
42365;DHT22;28498;54.400;18.566;2024-02-23T13:24:28;11.70;99.90
42365;DHT22;28498;54.400;18.566;2024-02-23T13:26:55;11.70;99.90
42365;DHT22;28498;54.400;18.566;2024-02-23T13:29:22;11.60;99.90
42365;DHT22;28498;54.400;18.566;2024-02-23T13:31:50;11.40;99.90
42365;DHT22;28498;54.400;18.566;2024-02-23T13:34:17;11.50;99.90
42365;DHT22;28498;54.400;18.566;2024-02-23T13:36:45;11.50;99.90
42365;DHT22;28498;54.400;18.566;2024-02-23T13:39:12;11.60;99.90
42365;DHT22;28498;54.400;18.566;2024-02-23T13:41:40;11.60;99.90
42365;DHT22;28498;54.400;18.566;2024-02-23T13:44:07;11.70;99.90
42365;DHT22;28498;54.400;18.566;2024-02-23T13:46:38;11.50;99.90
42365;DHT22;28498;54.400;18.566;2024-02-23T13:49:07;11.50;99.90
42365;DHT22;28498;54.400;18.566;2024-02-23T13:51:36;11.40;99.90
42365;DHT22;28498;54.400;18.566;2024-02-23T13:54:03;11.40;99.90
42365;DHT22;28498;54.400;18.566;2024-02-23T13:56:31;11.50;99.90
42365;DHT22;28498;54.400;18.566;2024-02-23T13:58:58;11.30;99.90
42365;DHT22;28498;54.400;18.566;2024-02-23T14:01:25;11.20;99.90
42365;DHT22;28498;54.400;18.566;2024-02-23T14:03:52;11.30;99.90
42365;DHT22;28498;54.400;18.566;2024-02-23T14:06:19;11.20;99.90
42365;DHT22;28498;54.400;18.566;2024-02-23T14:08:47;11.40;99.90
42365;DHT22;28498;54.400;18.566;2024-02-23T14:11:15;11.40;99.90
42365;DHT22;28498;54.400;18.566;2024-02-23T14:13:42;11.20;99.90
42365;DHT22;28498;54.400;18.566;2024-02-23T14:16:14;11.00;99.90
42365;DHT22;28498;54.400;18.566;2024-02-23T14:18:42;11.10;99.90
42365;DHT22;28498;54.400;18.566;2024-02-23T14:21:11;10.90;99.90
42365;DHT22;28498;54.400;18.566;2024-02-23T14:23:40;10.80;99.90
42365;DHT22;28498;54.400;18.566;2024-02-23T14:26:08;10.60;99.90
42365;DHT22;28498;54.400;18.566;2024-02-23T14:28:35;10.40;99.90
42365;DHT22;28498;54.400;18.566;2024-02-23T14:31:02;10.40;99.90
42365;DHT22;28498;54.400;18.566;2024-02-23T14:33:31;10.40;99.90
42365;DHT22;28498;54.400;18.566;2024-02-23T14:35:58;10.40;99.90
42365;DHT22;28498;54.400;18.566;2024-02-23T14:38:26;10.40;99.90
42365;DHT22;28498;54.400;18.566;2024-02-23T14:41:03;10.50;99.90
42365;DHT22;28498;54.400;18.566;2024-02-23T14:43:30;10.30;99.90
42365;DHT22;28498;54.400;18.566;2024-02-23T14:45:58;10.30;99.90
42365;DHT22;28498;54.400;18.566;2024-02-23T14:48:25;10.30;99.90
42365;DHT22;28498;54.400;18.566;2024-02-23T14:50:53;10.30;99.90
42365;DHT22;28498;54.400;18.566;2024-02-23T14:53:20;10.30;99.90
42365;DHT22;28498;54.400;18.566;2024-02-23T14:55:48;10.20;99.90
42365;DHT22;28498;54.400;18.566;2024-02-23T14:58:15;10.20;99.90
42365;DHT22;28498;54.400;18.566;2024-02-23T15:00:42;10.10;99.90
42365;DHT22;28498;54.400;18.566;2024-02-23T15:03:09;10.00;99.90
42365;DHT22;28498;54.400;18.566;2024-02-23T15:05:36;9.90;99.90
42365;DHT22;28498;54.400;18.566;2024-02-23T15:08:06;9.80;99.90
42365;DHT22;28498;54.400;18.566;2024-02-23T15:10:34;9.80;99.90
42365;DHT22;28498;54.400;18.566;2024-02-23T15:13:01;9.70;99.90
42365;DHT22;28498;54.400;18.566;2024-02-23T15:15:28;9.60;99.90
42365;DHT22;28498;54.400;18.566;2024-02-23T15:17:55;9.60;99.90
42365;DHT22;28498;54.400;18.566;2024-02-23T15:20:23;9.50;99.90
42365;DHT22;28498;54.400;18.566;2024-02-23T15:22:50;9.40;99.90
42365;DHT22;28498;54.400;18.566;2024-02-23T15:25:17;9.30;99.90
42365;DHT22;28498;54.400;18.566;2024-02-23T15:27:44;9.20;99.90
42365;DHT22;28498;54.400;18.566;2024-02-23T15:30:11;9.20;99.90
42365;DHT22;28498;54.400;18.566;2024-02-23T15:32:40;9.10;99.90
42365;DHT22;28498;54.400;18.566;2024-02-23T15:35:07;9.00;99.90
42365;DHT22;28498;54.400;18.566;2024-02-23T15:37:34;9.00;99.90
42365;DHT22;28498;54.400;18.566;2024-02-23T15:40:02;8.90;99.90
42365;DHT22;28498;54.400;18.566;2024-02-23T15:42:30;8.80;99.90